sensor_id;sensor_type;location;lat;lon;timestamp;pressure;altitude;pressure_sealevel;temperature;humidity
34672;BME280;55835;52.096;21.060;2022-07-05T00:00:16;100500.03;;;23.52;57.84
34672;BME280;55835;52.096;21.060;2022-07-05T00:02:43;100508.94;;;23.52;57.78
34672;BME280;55835;52.096;21.060;2022-07-05T00:05:10;100509.09;;;23.51;58.00
34672;BME280;55835;52.096;21.060;2022-07-05T00:07:37;100509.97;;;23.51;57.64
34672;BME280;55835;52.096;21.060;2022-07-05T00:10:04;100507.28;;;23.51;57.79
34672;BME280;55835;52.096;21.060;2022-07-05T00:12:33;100505.41;;;23.52;57.60
34672;BME280;55835;52.096;21.060;2022-07-05T00:15:00;100498.34;;;23.51;58.14
34672;BME280;55835;52.096;21.060;2022-07-05T00:17:27;100505.59;;;23.50;58.34
34672;BME280;55835;52.096;21.060;2022-07-05T00:19:54;100507.44;;;23.50;57.91
34672;BME280;55835;52.096;21.060;2022-07-05T00:22:21;100509.31;;;23.49;57.61
34672;BME280;55835;52.096;21.060;2022-07-05T00:24:47;100510.13;;;23.50;57.60
34672;BME280;55835;52.096;21.060;2022-07-05T00:27:15;100510.13;;;23.50;57.72
34672;BME280;55835;52.096;21.060;2022-07-05T00:29:43;100517.53;;;23.48;58.37
34672;BME280;55835;52.096;21.060;2022-07-05T00:32:10;100527.44;;;23.47;58.01
34672;BME280;55835;52.096;21.060;2022-07-05T00:34:37;100519.38;;;23.47;58.10
34672;BME280;55835;52.096;21.060;2022-07-05T00:37:04;100534.50;;;23.48;57.67
34672;BME280;55835;52.096;21.060;2022-07-05T00:39:30;100527.59;;;23.46;57.83
34672;BME280;55835;52.096;21.060;2022-07-05T00:41:57;100535.66;;;23.46;58.32
34672;BME280;55835;52.096;21.060;2022-07-05T00:44:31;100529.28;;;23.47;57.74
34672;BME280;55835;52.096;21.060;2022-07-05T00:47:02;100535.50;;;23.47;57.97
34672;BME280;55835;52.096;21.060;2022-07-05T00:49:30;100540.22;;;23.45;58.19
34672;BME280;55835;52.096;21.060;2022-07-05T00:51:58;100543.72;;;23.46;58.19
34672;BME280;55835;52.096;21.060;2022-07-05T00:54:25;100545.59;;;23.45;58.17
34672;BME280;55835;52.096;21.060;2022-07-05T00:56:52;100541.03;;;23.46;58.17
34672;BME280;55835;52.096;21.060;2022-07-05T00:59:19;100544.75;;;23.45;58.49
34672;BME280;55835;52.096;21.060;2022-07-05T01:01:46;100545.59;;;23.45;58.02
34672;BME280;55835;52.096;21.060;2022-07-05T01:04:14;100537.34;;;23.47;58.09
34672;BME280;55835;52.096;21.060;2022-07-05T01:06:43;100548.09;;;23.47;58.25
34672;BME280;55835;52.096;21.060;2022-07-05T01:09:10;100548.94;;;23.47;58.32
34672;BME280;55835;52.096;21.060;2022-07-05T01:11:38;100551.78;;;23.46;58.29
34672;BME280;55835;52.096;21.060;2022-07-05T01:14:05;100551.13;;;23.44;58.04
34672;BME280;55835;52.096;21.060;2022-07-05T01:16:35;100557.53;;;23.43;57.57
34672;BME280;55835;52.096;21.060;2022-07-05T01:19:04;100560.88;;;23.45;57.99
34672;BME280;55835;52.096;21.060;2022-07-05T01:21:33;100566.25;;;23.45;58.23
34672;BME280;55835;52.096;21.060;2022-07-05T01:24:06;100564.56;;;23.44;57.79
34672;BME280;55835;52.096;21.060;2022-07-05T01:26:33;100562.06;;;23.42;58.09
34672;BME280;55835;52.096;21.060;2022-07-05T01:29:00;100557.88;;;23.40;58.29
34672;BME280;55835;52.096;21.060;2022-07-05T01:31:26;100555.84;;;23.42;57.93
34672;BME280;55835;52.096;21.060;2022-07-05T01:33:53;100572.97;;;23.41;57.54
34672;BME280;55835;52.096;21.060;2022-07-05T01:36:20;100570.28;;;23.41;57.81
34672;BME280;55835;52.096;21.060;2022-07-05T01:38:47;100560.38;;;23.41;57.36
34672;BME280;55835;52.096;21.060;2022-07-05T01:41:15;100566.59;;;23.42;57.54
34672;BME280;55835;52.096;21.060;2022-07-05T01:43:42;100570.28;;;23.41;57.69
34672;BME280;55835;52.096;21.060;2022-07-05T01:46:09;100566.75;;;23.40;58.07
34672;BME280;55835;52.096;21.060;2022-07-05T01:48:39;100567.59;;;23.41;57.78
34672;BME280;55835;52.096;21.060;2022-07-05T01:51:09;100567.78;;;23.39;57.74
34672;BME280;55835;52.096;21.060;2022-07-05T01:53:41;100574.00;;;23.40;57.58
34672;BME280;55835;52.096;21.060;2022-07-05T01:56:09;100568.63;;;23.40;57.60
34672;BME280;55835;52.096;21.060;2022-07-05T01:58:38;100567.97;;;23.37;57.70
34672;BME280;55835;52.096;21.060;2022-07-05T02:01:05;100566.94;;;23.38;57.34
34672;BME280;55835;52.096;21.060;2022-07-05T02:03:32;100570.66;;;23.37;57.78
34672;BME280;55835;52.096;21.060;2022-07-05T02:05:59;100575.16;;;23.37;57.67
34672;BME280;55835;52.096;21.060;2022-07-05T02:08:29;100583.06;;;23.38;57.68
34672;BME280;55835;52.096;21.060;2022-07-05T02:10:56;100579.72;;;23.36;57.88
34672;BME280;55835;52.096;21.060;2022-07-05T02:13:23;100581.56;;;23.36;57.68
34672;BME280;55835;52.096;21.060;2022-07-05T02:15:51;100578.88;;;23.36;57.90
34672;BME280;55835;52.096;21.060;2022-07-05T02:18:18;100582.22;;;23.38;57.86
34672;BME280;55835;52.096;21.060;2022-07-05T02:20:44;100566.28;;;23.36;57.72
34672;BME280;55835;52.096;21.060;2022-07-05T02:23:11;100568.97;;;23.36;57.74
34672;BME280;55835;52.096;21.060;2022-07-05T02:25:38;100569.97;;;23.35;58.04
34672;BME280;55835;52.096;21.060;2022-07-05T02:28:05;100562.09;;;23.34;57.87
34672;BME280;55835;52.096;21.060;2022-07-05T02:30:31;100557.38;;;23.36;58.25
34672;BME280;55835;52.096;21.060;2022-07-05T02:32:59;100568.97;;;23.36;58.31
34672;BME280;55835;52.096;21.060;2022-07-05T02:35:26;100571.47;;;23.38;58.32
34672;BME280;55835;52.096;21.060;2022-07-05T02:37:53;100571.66;;;23.36;58.35
34672;BME280;55835;52.096;21.060;2022-07-05T02:40:19;100573.50;;;23.36;58.34
34672;BME280;55835;52.096;21.060;2022-07-05T02:42:46;100586.78;;;23.37;58.78
34672;BME280;55835;52.096;21.060;2022-07-05T02:45:13;100598.53;;;23.36;58.77
34672;BME280;55835;52.096;21.060;2022-07-05T02:47:39;100594.16;;;23.35;58.71
34672;BME280;55835;52.096;21.060;2022-07-05T02:50:10;100587.13;;;23.34;58.78
34672;BME280;55835;52.096;21.060;2022-07-05T02:52:37;100596.84;;;23.35;58.58
34672;BME280;55835;52.096;21.060;2022-07-05T02:55:05;100596.66;;;23.37;58.55
34672;BME280;55835;52.096;21.060;2022-07-05T02:57:32;100601.22;;;23.36;58.43
34672;BME280;55835;52.096;21.060;2022-07-05T02:59:58;100597.53;;;23.37;58.57
34672;BME280;55835;52.096;21.060;2022-07-05T03:02:25;100602.03;;;23.37;58.61
34672;BME280;55835;52.096;21.060;2022-07-05T03:04:52;100603.72;;;23.38;58.74
34672;BME280;55835;52.096;21.060;2022-07-05T03:07:23;100602.91;;;23.37;58.47
34672;BME280;55835;52.096;21.060;2022-07-05T03:09:49;100603.72;;;23.38;58.92
34672;BME280;55835;52.096;21.060;2022-07-05T03:12:16;100607.41;;;23.37;58.81
34672;BME280;55835;52.096;21.060;2022-07-05T03:14:43;100606.41;;;23.38;58.49
34672;BME280;55835;52.096;21.060;2022-07-05T03:17:10;100612.78;;;23.37;58.64
34672;BME280;55835;52.096;21.060;2022-07-05T03:19:36;100626.91;;;23.39;58.44
34672;BME280;55835;52.096;21.060;2022-07-05T03:22:03;100629.59;;;23.39;58.87
34672;BME280;55835;52.096;21.060;2022-07-05T03:24:31;100634.28;;;23.37;58.60
34672;BME280;55835;52.096;21.060;2022-07-05T03:26:58;100635.16;;;23.37;58.66
34672;BME280;55835;52.096;21.060;2022-07-05T03:29:24;100636.81;;;23.38;58.68
34672;BME280;55835;52.096;21.060;2022-07-05T03:31:51;100635.97;;;23.38;58.65
34672;BME280;55835;52.096;21.060;2022-07-05T03:34:18;100640.53;;;23.37;58.59
34672;BME280;55835;52.096;21.060;2022-07-05T03:36:44;100636.81;;;23.38;58.79
34672;BME280;55835;52.096;21.060;2022-07-05T03:39:11;100635.16;;;23.37;58.56
34672;BME280;55835;52.096;21.060;2022-07-05T03:41:39;100637.13;;;23.35;58.70
34672;BME280;55835;52.096;21.060;2022-07-05T03:44:06;100634.44;;;23.35;58.38
34672;BME280;55835;52.096;21.060;2022-07-05T03:46:33;100626.38;;;23.35;58.57
34672;BME280;55835;52.096;21.060;2022-07-05T03:48:59;100632.63;;;23.36;58.43
34672;BME280;55835;52.096;21.060;2022-07-05T03:51:26;100620.03;;;23.36;58.62
34672;BME280;55835;52.096;21.060;2022-07-05T03:53:52;100629.06;;;23.35;58.43
34672;BME280;55835;52.096;21.060;2022-07-05T03:56:19;100637.13;;;23.35;58.52
34672;BME280;55835;52.096;21.060;2022-07-05T03:58:50;100636.97;;;23.37;58.46
34672;BME280;55835;52.096;21.060;2022-07-05T04:01:17;100633.47;;;23.36;58.26
34672;BME280;55835;52.096;21.060;2022-07-05T04:03:44;100630.09;;;23.34;58.62
34672;BME280;55835;52.096;21.060;2022-07-05T04:06:11;100632.63;;;23.36;58.49
34672;BME280;55835;52.096;21.060;2022-07-05T04:08:38;100644.19;;;23.36;58.60
34672;BME280;55835;52.096;21.060;2022-07-05T04:11:08;100641.69;;;23.35;58.51
34672;BME280;55835;52.096;21.060;2022-07-05T04:13:38;100644.38;;;23.35;58.75
34672;BME280;55835;52.096;21.060;2022-07-05T04:16:07;100652.25;;;23.36;58.28
34672;BME280;55835;52.096;21.060;2022-07-05T04:18:33;100654.94;;;23.36;58.63
34672;BME280;55835;52.096;21.060;2022-07-05T04:21:00;100662.03;;;23.37;58.35
34672;BME280;55835;52.096;21.060;2022-07-05T04:23:27;100664.69;;;23.37;58.68
34672;BME280;55835;52.096;21.060;2022-07-05T04:25:54;100670.91;;;23.38;58.35
34672;BME280;55835;52.096;21.060;2022-07-05T04:28:20;100671.06;;;23.36;58.77
34672;BME280;55835;52.096;21.060;2022-07-05T04:30:47;100677.66;;;23.34;58.98
34672;BME280;55835;52.096;21.060;2022-07-05T04:33:15;100681.00;;;23.36;59.12
34672;BME280;55835;52.096;21.060;2022-07-05T04:35:42;100669.38;;;23.35;59.16
34672;BME280;55835;52.096;21.060;2022-07-05T04:38:08;100647.88;;;23.35;59.89
34672;BME280;55835;52.096;21.060;2022-07-05T04:40:35;100647.88;;;23.35;59.75
34672;BME280;55835;52.096;21.060;2022-07-05T04:43:02;100665.03;;;23.34;59.99
34672;BME280;55835;52.096;21.060;2022-07-05T04:45:29;100669.38;;;23.35;59.73
34672;BME280;55835;52.096;21.060;2022-07-05T04:47:55;100667.72;;;23.34;60.14
34672;BME280;55835;52.096;21.060;2022-07-05T04:50:23;100646.22;;;23.34;60.04
34672;BME280;55835;52.096;21.060;2022-07-05T04:52:50;100654.28;;;23.34;59.99
34672;BME280;55835;52.096;21.060;2022-07-05T04:55:17;100656.97;;;23.34;60.08
34672;BME280;55835;52.096;21.060;2022-07-05T04:57:44;100667.91;;;23.33;60.06
34672;BME280;55835;52.096;21.060;2022-07-05T05:00:12;100672.28;;;23.34;60.02
34672;BME280;55835;52.096;21.060;2022-07-05T05:02:39;100669.59;;;23.34;60.20
34672;BME280;55835;52.096;21.060;2022-07-05T05:05:07;100664.00;;;23.35;60.09
34672;BME280;55835;52.096;21.060;2022-07-05T05:07:35;100666.69;;;23.35;60.17
34672;BME280;55835;52.096;21.060;2022-07-05T05:10:04;100673.44;;;23.31;60.71
34672;BME280;55835;52.096;21.060;2022-07-05T05:12:31;100684.38;;;23.13;60.43
34672;BME280;55835;52.096;21.060;2022-07-05T05:14:57;100675.47;;;22.96;60.46
34672;BME280;55835;52.096;21.060;2022-07-05T05:17:24;100670.25;;;22.87;60.71
34672;BME280;55835;52.096;21.060;2022-07-05T05:19:52;100678.13;;;22.80;60.20
34672;BME280;55835;52.096;21.060;2022-07-05T05:22:18;100672.41;;;22.75;60.52
34672;BME280;55835;52.096;21.060;2022-07-05T05:24:46;100668.03;;;22.74;60.25
34672;BME280;55835;52.096;21.060;2022-07-05T05:27:13;100668.41;;;22.71;60.43
34672;BME280;55835;52.096;21.060;2022-07-05T05:29:40;100666.03;;;22.68;60.11
34672;BME280;55835;52.096;21.060;2022-07-05T05:32:06;100656.47;;;22.65;59.92
34672;BME280;55835;52.096;21.060;2022-07-05T05:34:33;100653.94;;;22.63;60.07
34672;BME280;55835;52.096;21.060;2022-07-05T05:37:00;100656.97;;;22.60;59.80
34672;BME280;55835;52.096;21.060;2022-07-05T05:39:27;100654.63;;;22.66;59.79
34672;BME280;55835;52.096;21.060;2022-07-05T05:41:55;100650.25;;;22.65;59.76
34672;BME280;55835;52.096;21.060;2022-07-05T05:44:21;100646.59;;;22.66;59.34
34672;BME280;55835;52.096;21.060;2022-07-05T05:46:48;100642.53;;;22.70;59.59
34672;BME280;55835;52.096;21.060;2022-07-05T05:49:15;100645.91;;;22.72;59.59
34672;BME280;55835;52.096;21.060;2022-07-05T05:51:41;100641.56;;;22.71;59.62
34672;BME280;55835;52.096;21.060;2022-07-05T05:54:08;100643.53;;;22.69;59.40
34672;BME280;55835;52.096;21.060;2022-07-05T05:56:35;100649.09;;;22.67;59.07
34672;BME280;55835;52.096;21.060;2022-07-05T05:59:04;100648.25;;;22.67;58.91
34672;BME280;55835;52.096;21.060;2022-07-05T06:01:31;100654.63;;;22.66;59.39
34672;BME280;55835;52.096;21.060;2022-07-05T06:03:58;100649.75;;;22.61;59.69
34672;BME280;55835;52.096;21.060;2022-07-05T06:06:25;100657.97;;;22.59;59.64
34672;BME280;55835;52.096;21.060;2022-07-05T06:08:51;100655.44;;;22.58;59.35
34672;BME280;55835;52.096;21.060;2022-07-05T06:11:18;100654.63;;;22.57;59.18
34672;BME280;55835;52.096;21.060;2022-07-05T06:13:45;100650.91;;;22.58;59.67
34672;BME280;55835;52.096;21.060;2022-07-05T06:16:13;100651.78;;;22.59;59.35
34672;BME280;55835;52.096;21.060;2022-07-05T06:18:40;100664.53;;;22.57;59.32
34672;BME280;55835;52.096;21.060;2022-07-05T06:21:06;100655.44;;;22.58;59.73
34672;BME280;55835;52.096;21.060;2022-07-05T06:23:33;100659.16;;;22.57;59.50
34672;BME280;55835;52.096;21.060;2022-07-05T06:26:00;100654.94;;;22.54;59.89
34672;BME280;55835;52.096;21.060;2022-07-05T06:28:26;100660.16;;;22.56;59.80
34672;BME280;55835;52.096;21.060;2022-07-05T06:30:53;100665.34;;;22.57;59.99
34672;BME280;55835;52.096;21.060;2022-07-05T06:33:21;100657.31;;;22.57;59.68
34672;BME280;55835;52.096;21.060;2022-07-05T06:35:48;100657.97;;;22.59;60.01
34672;BME280;55835;52.096;21.060;2022-07-05T06:38:14;100658.81;;;22.60;59.93
34672;BME280;55835;52.096;21.060;2022-07-05T06:40:42;100656.97;;;22.60;59.67
34672;BME280;55835;52.096;21.060;2022-07-05T06:43:10;100661.00;;;22.65;59.77
34672;BME280;55835;52.096;21.060;2022-07-05T06:45:38;100661.00;;;22.65;59.54
34672;BME280;55835;52.096;21.060;2022-07-05T06:48:06;100666.03;;;22.68;59.72
34672;BME280;55835;52.096;21.060;2022-07-05T06:50:36;100675.75;;;22.69;59.74
34672;BME280;55835;52.096;21.060;2022-07-05T06:53:02;100676.78;;;22.68;59.57
34672;BME280;55835;52.096;21.060;2022-07-05T06:55:29;100680.13;;;22.70;59.50
34672;BME280;55835;52.096;21.060;2022-07-05T06:57:57;100685.50;;;22.70;60.02
34672;BME280;55835;52.096;21.060;2022-07-05T07:00:25;100686.00;;;22.81;59.70
34672;BME280;55835;52.096;21.060;2022-07-05T07:02:52;100679.47;;;22.92;59.64
34672;BME280;55835;52.096;21.060;2022-07-05T07:05:19;100680.66;;;23.06;59.63
34672;BME280;55835;52.096;21.060;2022-07-05T07:07:47;100678.47;;;23.18;59.35
34672;BME280;55835;52.096;21.060;2022-07-05T07:10:32;100673.44;;;23.31;59.17
34672;BME280;55835;52.096;21.060;2022-07-05T07:12:59;100668.38;;;23.45;59.00
34672;BME280;55835;52.096;21.060;2022-07-05T07:15:26;100662.44;;;23.58;58.80
34672;BME280;55835;52.096;21.060;2022-07-05T07:17:53;100658.91;;;23.65;58.60
34672;BME280;55835;52.096;21.060;2022-07-05T07:20:20;100653.69;;;23.72;58.21
34672;BME280;55835;52.096;21.060;2022-07-05T07:22:48;100660.03;;;23.79;58.68
34672;BME280;55835;52.096;21.060;2022-07-05T07:25:15;100664.25;;;23.82;58.82
34672;BME280;55835;52.096;21.060;2022-07-05T07:27:43;100665.06;;;23.90;58.38
34672;BME280;55835;52.096;21.060;2022-07-05T07:30:11;100660.91;;;23.71;58.41
34672;BME280;55835;52.096;21.060;2022-07-05T07:32:38;100665.03;;;23.26;58.78
34672;BME280;55835;52.096;21.060;2022-07-05T07:35:06;100661.69;;;22.91;56.60
34672;BME280;55835;52.096;21.060;2022-07-05T07:37:33;100668.41;;;22.71;58.02
34672;BME280;55835;52.096;21.060;2022-07-05T07:40:01;100656.00;;;23.11;57.32
34672;BME280;55835;52.096;21.060;2022-07-05T07:42:28;100659.81;;;23.49;56.77
34672;BME280;55835;52.096;21.060;2022-07-05T07:44:55;100657.22;;;23.72;56.70
34672;BME280;55835;52.096;21.060;2022-07-05T07:47:22;100659.88;;;23.89;56.19
34672;BME280;55835;52.096;21.060;2022-07-05T07:49:48;100660.50;;;23.99;56.86
34672;BME280;55835;52.096;21.060;2022-07-05T07:52:15;100659.13;;;24.03;56.88
34672;BME280;55835;52.096;21.060;2022-07-05T07:54:42;100661.97;;;24.10;56.85
34672;BME280;55835;52.096;21.060;2022-07-05T07:57:10;100655.44;;;24.04;58.32
34672;BME280;55835;52.096;21.060;2022-07-05T07:59:36;100650.38;;;24.09;57.73
34672;BME280;55835;52.096;21.060;2022-07-05T08:02:04;100652.66;;;24.21;57.48
34672;BME280;55835;52.096;21.060;2022-07-05T08:04:30;100648.59;;;24.25;57.38
34672;BME280;55835;52.096;21.060;2022-07-05T08:06:57;100649.56;;;24.32;57.51
34672;BME280;55835;52.096;21.060;2022-07-05T08:09:24;100659.78;;;24.37;57.33
34672;BME280;55835;52.096;21.060;2022-07-05T08:11:51;100655.72;;;24.41;56.84
34672;BME280;55835;52.096;21.060;2022-07-05T08:14:19;100654.34;;;24.45;57.54
34672;BME280;55835;52.096;21.060;2022-07-05T08:16:47;100648.59;;;24.48;57.36
34672;BME280;55835;52.096;21.060;2022-07-05T08:19:14;100644.44;;;24.45;57.49
34672;BME280;55835;52.096;21.060;2022-07-05T08:21:58;100656.56;;;24.41;58.17
34672;BME280;55835;52.096;21.060;2022-07-05T08:24:24;100652.00;;;24.42;57.59
34672;BME280;55835;52.096;21.060;2022-07-05T08:26:51;100651.47;;;24.55;57.89
34672;BME280;55835;52.096;21.060;2022-07-05T08:29:19;100641.66;;;24.54;58.27
34672;BME280;55835;52.096;21.060;2022-07-05T08:31:47;100648.09;;;24.53;58.16
34672;BME280;55835;52.096;21.060;2022-07-05T08:34:15;100644.53;;;24.52;58.05
34672;BME280;55835;52.096;21.060;2022-07-05T08:36:43;100647.44;;;24.51;57.98
34672;BME280;55835;52.096;21.060;2022-07-05T08:39:10;100656.16;;;24.53;58.63
34672;BME280;55835;52.096;21.060;2022-07-05T08:41:39;100650.47;;;24.56;58.75
34672;BME280;55835;52.096;21.060;2022-07-05T08:44:07;100654.44;;;24.60;58.18
34672;BME280;55835;52.096;21.060;2022-07-05T08:46:38;100657.97;;;24.60;58.24
34672;BME280;55835;52.096;21.060;2022-07-05T08:49:05;100649.44;;;24.48;59.13
34672;BME280;55835;52.096;21.060;2022-07-05T08:51:35;100646.16;;;24.38;58.91
34672;BME280;55835;52.096;21.060;2022-07-05T08:54:03;100643.31;;;24.31;58.71
34672;BME280;55835;52.096;21.060;2022-07-05T08:56:30;100632.06;;;24.28;58.78
34672;BME280;55835;52.096;21.060;2022-07-05T08:58:58;100635.97;;;24.25;58.57
34672;BME280;55835;52.096;21.060;2022-07-05T09:01:25;100637.84;;;24.25;58.08
34672;BME280;55835;52.096;21.060;2022-07-05T09:03:54;100642.00;;;24.27;58.28
34672;BME280;55835;52.096;21.060;2022-07-05T09:06:24;100632.47;;;24.25;58.19
34672;BME280;55835;52.096;21.060;2022-07-05T09:08:54;100631.59;;;24.24;57.82
34672;BME280;55835;52.096;21.060;2022-07-05T09:11:24;100635.06;;;24.10;57.62
34672;BME280;55835;52.096;21.060;2022-07-05T09:13:51;100629.31;;;23.73;55.80
34672;BME280;55835;52.096;21.060;2022-07-05T09:16:18;100639.66;;;23.37;54.83
34672;BME280;55835;52.096;21.060;2022-07-05T09:18:46;100634.47;;;22.94;54.56
34672;BME280;55835;52.096;21.060;2022-07-05T09:21:19;100634.09;;;23.47;56.47
34672;BME280;55835;52.096;21.060;2022-07-05T09:23:53;100639.81;;;24.00;54.79
34672;BME280;55835;52.096;21.060;2022-07-05T09:26:21;100632.75;;;24.30;54.60
34672;BME280;55835;52.096;21.060;2022-07-05T09:28:54;100635.31;;;24.46;54.87
34672;BME280;55835;52.096;21.060;2022-07-05T09:31:28;100630.75;;;24.55;54.61
34672;BME280;55835;52.096;21.060;2022-07-05T09:34:05;100631.53;;;24.64;54.96
34672;BME280;55835;52.096;21.060;2022-07-05T09:36:50;100628.78;;;24.72;54.79
34672;BME280;55835;52.096;21.060;2022-07-05T09:39:18;100626.72;;;24.74;55.49
34672;BME280;55835;52.096;21.060;2022-07-05T09:42:13;100622.69;;;24.78;55.84
34672;BME280;55835;52.096;21.060;2022-07-05T09:44:45;100627.31;;;24.84;55.87
34672;BME280;55835;52.096;21.060;2022-07-05T09:47:12;100618.88;;;24.88;56.38
34672;BME280;55835;52.096;21.060;2022-07-05T09:49:42;100622.69;;;24.93;56.93
34672;BME280;55835;52.096;21.060;2022-07-05T09:52:11;100618.81;;;24.96;56.67
34672;BME280;55835;52.096;21.060;2022-07-05T09:54:38;100621.97;;;24.99;56.90
34672;BME280;55835;52.096;21.060;2022-07-05T09:57:05;100627.19;;;25.01;57.28
34672;BME280;55835;52.096;21.060;2022-07-05T09:59:32;100627.19;;;25.01;57.94
34672;BME280;55835;52.096;21.060;2022-07-05T10:01:59;100626.81;;;25.04;57.48
34672;BME280;55835;52.096;21.060;2022-07-05T10:04:25;100626.63;;;25.05;57.71
34672;BME280;55835;52.096;21.060;2022-07-05T10:06:52;100628.94;;;25.09;58.08
34672;BME280;55835;52.096;21.060;2022-07-05T10:09:21;100634.63;;;24.99;58.66
34672;BME280;55835;52.096;21.060;2022-07-05T10:11:49;100637.44;;;24.82;59.75
34672;BME280;55835;52.096;21.060;2022-07-05T10:14:19;100639.53;;;24.72;59.88
34672;BME280;55835;52.096;21.060;2022-07-05T10:16:56;100641.94;;;24.67;59.82
34672;BME280;55835;52.096;21.060;2022-07-05T10:19:28;100643.50;;;24.61;60.22
34672;BME280;55835;52.096;21.060;2022-07-05T10:21:55;100635.59;;;24.60;60.32
34672;BME280;55835;52.096;21.060;2022-07-05T10:24:24;100635.97;;;24.57;60.37
34672;BME280;55835;52.096;21.060;2022-07-05T10:26:53;100638.00;;;24.55;60.18
34672;BME280;55835;52.096;21.060;2022-07-05T10:29:20;100632.63;;;24.55;60.50
34672;BME280;55835;52.096;21.060;2022-07-05T10:31:47;100634.97;;;24.49;60.42
34672;BME280;55835;52.096;21.060;2022-07-05T10:34:14;100630.97;;;24.45;60.06
34672;BME280;55835;52.096;21.060;2022-07-05T10:36:41;100625.09;;;24.42;60.06
34672;BME280;55835;52.096;21.060;2022-07-05T10:39:09;100622.78;;;24.39;59.77
34672;BME280;55835;52.096;21.060;2022-07-05T10:41:38;100622.31;;;24.35;59.86
34672;BME280;55835;52.096;21.060;2022-07-05T10:44:06;100633.13;;;24.27;59.64
34672;BME280;55835;52.096;21.060;2022-07-05T10:46:34;100633.75;;;24.29;59.33
34672;BME280;55835;52.096;21.060;2022-07-05T10:49:18;100632.94;;;24.28;58.46
34672;BME280;55835;52.096;21.060;2022-07-05T10:51:46;100630.25;;;24.28;58.49
34672;BME280;55835;52.096;21.060;2022-07-05T10:54:14;100637.84;;;24.25;58.57
34672;BME280;55835;52.096;21.060;2022-07-05T10:57:20;100644.41;;;24.22;58.18
34672;BME280;55835;52.096;21.060;2022-07-05T11:00:06;100642.53;;;24.23;57.82
34672;BME280;55835;52.096;21.060;2022-07-05T11:02:33;100636.50;;;24.21;57.98
34672;BME280;55835;52.096;21.060;2022-07-05T11:05:00;100636.66;;;24.19;57.67
34672;BME280;55835;52.096;21.060;2022-07-05T11:07:56;100628.88;;;24.33;57.44
34672;BME280;55835;52.096;21.060;2022-07-05T11:10:23;100633.28;;;24.48;57.22
34672;BME280;55835;52.096;21.060;2022-07-05T11:12:51;100617.75;;;24.59;56.93
34672;BME280;55835;52.096;21.060;2022-07-05T11:15:18;100619.22;;;24.70;56.38
34672;BME280;55835;52.096;21.060;2022-07-05T11:17:45;100615.59;;;24.77;56.46
34672;BME280;55835;52.096;21.060;2022-07-05T11:20:13;100613.56;;;24.79;56.25
34672;BME280;55835;52.096;21.060;2022-07-05T11:23:00;100602.91;;;24.86;56.21
34672;BME280;55835;52.096;21.060;2022-07-05T11:25:28;100599.66;;;24.91;56.33
34672;BME280;55835;52.096;21.060;2022-07-05T11:28:05;100606.34;;;24.95;56.20
34672;BME280;55835;52.096;21.060;2022-07-05T11:30:48;100600.59;;;24.98;56.46
34672;BME280;55835;52.096;21.060;2022-07-05T11:33:39;100612.72;;;25.02;56.15
34672;BME280;55835;52.096;21.060;2022-07-05T11:36:20;100608.28;;;24.86;57.22
34672;BME280;55835;52.096;21.060;2022-07-05T11:39:07;100607.13;;;24.65;57.69
34672;BME280;55835;52.096;21.060;2022-07-05T11:41:37;100602.66;;;24.58;57.50
34672;BME280;55835;52.096;21.060;2022-07-05T11:44:05;100602.31;;;24.53;57.92
34672;BME280;55835;52.096;21.060;2022-07-05T11:46:32;100602.31;;;24.53;57.48
34672;BME280;55835;52.096;21.060;2022-07-05T11:48:59;100593.94;;;24.47;57.60
34672;BME280;55835;52.096;21.060;2022-07-05T11:51:26;100596.81;;;24.46;57.80
34672;BME280;55835;52.096;21.060;2022-07-05T11:53:53;100597.28;;;24.49;57.21
34672;BME280;55835;52.096;21.060;2022-07-05T11:56:20;100588.31;;;24.57;57.10
34672;BME280;55835;52.096;21.060;2022-07-05T11:58:47;100587.72;;;24.70;56.43
34672;BME280;55835;52.096;21.060;2022-07-05T12:01:15;100579.94;;;24.75;56.85
34672;BME280;55835;52.096;21.060;2022-07-05T12:03:52;100578.72;;;24.78;55.93
34672;BME280;55835;52.096;21.060;2022-07-05T12:06:19;100574.84;;;24.80;56.59
34672;BME280;55835;52.096;21.060;2022-07-05T12:08:46;100573.63;;;24.83;56.83
34672;BME280;55835;52.096;21.060;2022-07-05T12:11:13;100569.38;;;24.89;56.93
34672;BME280;55835;52.096;21.060;2022-07-05T12:13:57;100572.38;;;24.94;56.59
34672;BME280;55835;52.096;21.060;2022-07-05T12:16:25;100564.00;;;24.89;56.84
34672;BME280;55835;52.096;21.060;2022-07-05T12:18:53;100564.38;;;24.85;57.00
34672;BME280;55835;52.096;21.060;2022-07-05T12:21:21;100563.53;;;24.85;56.67
34672;BME280;55835;52.096;21.060;2022-07-05T12:23:48;100567.22;;;24.84;57.02
34672;BME280;55835;52.096;21.060;2022-07-05T12:26:16;100570.56;;;24.86;57.12
34672;BME280;55835;52.096;21.060;2022-07-05T12:28:44;100573.09;;;24.88;57.25
34672;BME280;55835;52.096;21.060;2022-07-05T12:31:18;100569.31;;;24.97;57.40
34672;BME280;55835;52.096;21.060;2022-07-05T12:33:47;100567.56;;;25.04;57.64
34672;BME280;55835;52.096;21.060;2022-07-05T12:36:15;100570.78;;;24.99;57.03
34672;BME280;55835;52.096;21.060;2022-07-05T12:38:43;100578.59;;;24.94;56.53
34672;BME280;55835;52.096;21.060;2022-07-05T12:41:10;100573.75;;;24.90;56.98
34672;BME280;55835;52.096;21.060;2022-07-05T12:43:51;100562.31;;;24.88;57.18
34672;BME280;55835;52.096;21.060;2022-07-05T12:46:18;100567.00;;;24.71;57.55